Time;durP1;ratioP1;P1;durP2;ratioP2;P2;SDS_P1;SDS_P2;PMS_P1;PMS_P2;Temp;Humidity;BMP_temperature;BMP_pressure;BME280_temperature;BME280_humidity;BME280_pressure;Samples;Min_cycle;Max_cycle;Signal;HPM_P1;HPM_P2
2022/03/11 00:10:27;;;;;;;10.5;17.9;;;;;;;-6.1;67.1;100490;;;;
2022/03/11 00:20:27;;;;;;;10.5;17.9;;;;;;;-6.1;67.2;100480;;;;
2022/03/11 00:31:28;;;;;;;10.5;17.9;;;;;;;-6.2;67.3;100480;;;;
2022/03/11 00:42:27;;;;;;;11.8;21.5;;;;;;;-6.3;67.2;100470;;;;
2022/03/11 00:52:27;;;;;;;11.8;21.5;;;;;;;-6.5;67.1;100470;;;;
2022/03/11 01:02:27;;;;;;;11.8;21.5;;;;;;;-6.6;67.8;100470;;;;
2022/03/11 01:13:27;;;;;;;10.9;17.3;;;;;;;-6.8;68.4;100470;;;;
2022/03/11 01:23:27;;;;;;;10.9;17.3;;;;;;;-6.9;68.9;100470;;;;
2022/03/11 01:34:27;;;;;;;13.1;23.5;;;;;;;-6.9;69.4;100460;;;;
2022/03/11 01:45:27;;;;;;;13.1;23.5;;;;;;;-6.9;69.6;100460;;;;
2022/03/11 01:55:27;;;;;;;13.1;23.5;;;;;;;-7;69.8;100460;;;;
2022/03/11 02:06:27;;;;;;;13.1;23.5;;;;;;;-7.1;70.6;100470;;;;
2022/03/11 02:17:27;;;;;;;13.1;23.5;;;;;;;-7.2;70.7;100480;;;;
2022/03/11 02:27:27;;;;;;;13.1;23.5;;;;;;;-7.2;71.3;100480;;;;
2022/03/11 02:38:27;;;;;;;12.4;25.3;;;;;;;-7.2;72.3;100480;;;;
2022/03/11 02:48:27;;;;;;;12.4;25.3;;;;;;;-7.2;72.7;100480;;;;
2022/03/11 02:59:27;;;;;;;12.4;25.3;;;;;;;-7.3;73;100490;;;;
2022/03/11 03:10:27;;;;;;;13.3;26.8;;;;;;;-7.3;73.1;100490;;;;
2022/03/11 03:21:27;;;;;;;13.3;26.8;;;;;;;-7.4;73.4;100490;;;;
2022/03/11 03:32:27;;;;;;;14.5;24.7;;;;;;;-7.4;73.1;100480;;;;
2022/03/11 03:43:27;;;;;;;14.5;24.7;;;;;;;-7.5;72.9;100480;;;;
2022/03/11 03:53:27;;;;;;;14.5;24.7;;;;;;;-7.6;72.9;100470;;;;
2022/03/11 04:03:27;;;;;;;13.6;23.7;;;;;;;-7.6;73;100470;;;;
2022/03/11 04:14:27;;;;;;;13.6;23.7;;;;;;;-7.8;72.8;100490;;;;
2022/03/11 04:25:27;;;;;;;13.6;23.7;;;;;;;-7.9;72.7;100490;;;;
2022/03/11 04:36:28;;;;;;;13.3;27.6;;;;;;;-8.1;73.2;100480;;;;
2022/03/11 04:46:27;;;;;;;13.3;27.6;;;;;;;-8.2;73.7;100490;;;;
2022/03/11 04:57:27;;;;;;;13.3;27.6;;;;;;;-8.2;73.7;100490;;;;
2022/03/11 05:07:27;;;;;;;14.6;29.7;;;;;;;-8.3;74.5;100490;;;;
2022/03/11 05:17:27;;;;;;;14.6;29.7;;;;;;;-8.3;75.5;100480;;;;
2022/03/11 05:27:27;;;;;;;14.6;29.7;;;;;;;-8.2;76;100490;;;;
2022/03/11 05:37:27;;;;;;;15.8;31.8;;;;;;;-7.9;75.4;100500;;;;
2022/03/11 05:48:27;;;;;;;15.8;31.8;;;;;;;-7.5;74.8;100510;;;;
2022/03/11 05:58:27;;;;;;;15.8;31.8;;;;;;;-7.1;74.3;100520;;;;
2022/03/11 06:09:27;;;;;;;16.5;26;;;;;;;-6.8;73.6;100530;;;;
2022/03/11 06:19:27;;;;;;;16.5;26;;;;;;;-6.6;73.1;100540;;;;
2022/03/11 06:30:27;;;;;;;16.5;26;;;;;;;-6.1;72.6;100530;;;;
2022/03/11 06:40:27;;;;;;;17.7;30.4;;;;;;;-5.8;71.3;100540;;;;
2022/03/11 06:50:27;;;;;;;17.7;30.4;;;;;;;-5.5;70.4;100540;;;;
2022/03/11 07:00:27;;;;;;;17.7;30.4;;;;;;;-4.9;69.2;100550;;;;
2022/03/11 07:11:27;;;;;;;23.4;33;;;;;;;-4.5;67;100560;;;;
2022/03/11 07:21:27;;;;;;;23.4;33;;;;;;;-4.1;66.4;100560;;;;
2022/03/11 07:32:27;;;;;;;24.1;30.8;;;;;;;-3.7;64.7;100550;;;;
2022/03/11 07:42:27;;;;;;;24.1;30.8;;;;;;;-3.3;62.7;100550;;;;
2022/03/11 07:53:27;;;;;;;24.1;30.8;;;;;;;-3;61.8;100550;;;;
2022/03/11 08:04:29;;;;;;;23.1;28.7;;;;;;;-2.6;59.8;100550;;;;
2022/03/11 08:14:27;;;;;;;23.1;28.7;;;;;;;-2.1;56.8;100550;;;;
2022/03/11 08:24:27;;;;;;;23.1;28.7;;;;;;;-2.1;54.6;100540;;;;
2022/03/11 08:35:27;;;;;;;17.8;21.4;;;;;;;-1.7;53;100550;;;;
2022/03/11 08:46:29;;;;;;;17.8;21.4;;;;;;;-1.4;51.9;100550;;;;
2022/03/11 08:56:27;;;;;;;17.8;21.4;;;;;;;-1.3;50.3;100550;;;;
2022/03/11 09:07:29;;;;;;;14.5;19.1;;;;;;;-0.8;48.6;100550;;;;
2022/03/11 09:17:27;;;;;;;14.5;19.1;;;;;;;-0.8;47.2;100540;;;;
2022/03/11 09:27:29;;;;;;;14.5;19.1;;;;;;;-0.8;45.1;100540;;;;
2022/03/11 09:37:27;;;;;;;9.9;13.7;;;;;;;-0.4;42.3;100530;;;;
2022/03/11 09:47:27;;;;;;;9.9;13.7;;;;;;;-0.4;41.7;100540;;;;
2022/03/11 09:58:27;;;;;;;9.9;13.7;;;;;;;-0.2;41.5;100530;;;;
2022/03/11 10:09:30;;;;;;;10.9;14;;;;;;;-0.1;41.5;100540;;;;
2022/03/11 10:20:27;;;;;;;10.9;14;;;;;;;0.1;39.4;100530;;;;
2022/03/11 10:30:27;;;;;;;9.9;12.4;;;;;;;0;40.2;100530;;;;
2022/03/11 10:41:29;;;;;;;9.9;12.4;;;;;;;0.3;40.2;100520;;;;
2022/03/11 10:52:27;;;;;;;9.9;12.4;;;;;;;0.6;38.7;100510;;;;
2022/03/11 11:02:27;;;;;;;10.6;13.9;;;;;;;1;37.1;100510;;;;
2022/03/11 11:13:28;;;;;;;10.6;13.9;;;;;;;1.3;37.5;100510;;;;
2022/03/11 11:24:28;;;;;;;10.6;13.9;;;;;;;1.2;36.8;100500;;;;
2022/03/11 11:35:27;;;;;;;9.6;13.8;;;;;;;1.5;37.1;100500;;;;
2022/03/11 11:46:27;;;;;;;9.6;13.8;;;;;;;1.2;36.7;100490;;;;
2022/03/11 11:57:27;;;;;;;9.6;13.8;;;;;;;1.3;36;100480;;;;
2022/03/11 12:08:27;;;;;;;9.5;12.2;;;;;;;1.7;34.9;100460;;;;
2022/03/11 12:19:28;;;;;;;9.5;12.2;;;;;;;1.6;34.6;100460;;;;
2022/03/11 12:30:27;;;;;;;7.7;10.9;;;;;;;1.9;34.1;100450;;;;
2022/03/11 12:41:27;;;;;;;7.7;10.9;;;;;;;1.7;33.2;100430;;;;
2022/03/11 12:51:27;;;;;;;7.7;10.9;;;;;;;1.8;32.7;100420;;;;
2022/03/11 13:02:27;;;;;;;6.5;12;;;;;;;2.2;31.7;100420;;;;
2022/03/11 13:12:27;;;;;;;6.5;12;;;;;;;2.2;31.3;100410;;;;
2022/03/11 13:23:28;;;;;;;6.5;12;;;;;;;2.3;31.7;100400;;;;
2022/03/11 13:33:27;;;;;;;6.5;10.2;;;;;;;2.7;31.2;100400;;;;
2022/03/11 13:43:27;;;;;;;6.5;10.2;;;;;;;2.5;30.9;100380;;;;
2022/03/11 13:53:27;;;;;;;6.5;10.2;;;;;;;2.5;31.7;100380;;;;
2022/03/11 14:03:28;;;;;;;6.4;11.4;;;;;;;2.5;30.8;100370;;;;
2022/03/11 14:14:27;;;;;;;6.4;11.4;;;;;;;2.7;29.8;100360;;;;
2022/03/11 14:25:28;;;;;;;6.4;11.4;;;;;;;2.5;30.7;100350;;;;
2022/03/11 14:36:27;;;;;;;6.1;9.7;;;;;;;2.8;30.7;100350;;;;
2022/03/11 14:47:27;;;;;;;6.1;9.7;;;;;;;2.6;29.9;100340;;;;
2022/03/11 14:57:27;;;;;;;6.1;9.7;;;;;;;2.5;29.4;100330;;;;
2022/03/11 15:07:27;;;;;;;6.5;9.9;;;;;;;2.3;30.6;100320;;;;
2022/03/11 15:18:28;;;;;;;6.5;9.9;;;;;;;2.2;29.1;100320;;;;
2022/03/11 15:28:28;;;;;;;6.5;9.9;;;;;;;2.1;30.6;100310;;;;
2022/03/11 15:39:27;;;;;;;13.5;16.4;;;;;;;1.9;30.6;100310;;;;
2022/03/11 15:49:27;;;;;;;13.5;16.4;;;;;;;2.7;29.5;100290;;;;
2022/03/11 16:00:27;;;;;;;22.7;28.2;;;;;;;2.3;30.1;100290;;;;
2022/03/11 16:11:27;;;;;;;22.7;28.2;;;;;;;1.4;31.8;100290;;;;
2022/03/11 16:22:27;;;;;;;22.7;28.2;;;;;;;0.9;33.1;100290;;;;
2022/03/11 16:32:29;;;;;;;22.1;28;;;;;;;0.4;34.5;100300;;;;
2022/03/11 16:43:27;;;;;;;22.1;28;;;;;;;0;34.9;100310;;;;
2022/03/11 16:54:27;;;;;;;22.1;28;;;;;;;-0.4;35.4;100310;;;;
2022/03/11 17:04:27;;;;;;;29.1;41.4;;;;;;;-0.8;36.2;100320;;;;
2022/03/11 17:14:28;;;;;;;29.1;41.4;;;;;;;-1;37.1;100320;;;;
2022/03/11 17:25:27;;;;;;;29.1;41.4;;;;;;;-1.5;37.6;100330;;;;
2022/03/11 17:36:27;;;;;;;19.6;23.9;;;;;;;-1.8;38.6;100330;;;;
2022/03/11 17:46:29;;;;;;;19.6;23.9;;;;;;;-2.1;39.2;100330;;;;
2022/03/11 17:56:27;;;;;;;19.6;23.9;;;;;;;-2.5;40.2;100320;;;;
2022/03/11 18:06:27;;;;;;;17.9;26;;;;;;;-2.5;41;100320;;;;
2022/03/11 18:16:27;;;;;;;17.9;26;;;;;;;-2.8;41.8;100320;;;;
2022/03/11 18:26:27;;;;;;;17.9;26;;;;;;;-3;43.1;100330;;;;
2022/03/11 18:36:28;;;;;;;39.1;52;;;;;;;-3.4;43.5;100330;;;;
2022/03/11 18:46:27;;;;;;;39.1;52;;;;;;;-3.6;45.2;100340;;;;
2022/03/11 18:57:27;;;;;;;39.1;52;;;;;;;-3.9;46;100340;;;;
2022/03/11 19:07:28;;;;;;;26.8;40.9;;;;;;;-4.2;46.2;100340;;;;
2022/03/11 19:18:28;;;;;;;26.8;40.9;;;;;;;-4.3;47;100350;;;;
2022/03/11 19:28:27;;;;;;;23.4;31.9;;;;;;;-4.3;47.7;100350;;;;
2022/03/11 19:39:28;;;;;;;23.4;31.9;;;;;;;-4.1;48.6;100350;;;;
2022/03/11 19:49:27;;;;;;;23.4;31.9;;;;;;;-4.6;49;100350;;;;
2022/03/11 19:59:28;;;;;;;28.6;45;;;;;;;-4.8;49.9;100350;;;;
2022/03/11 20:10:28;;;;;;;28.6;45;;;;;;;-5.1;51.3;100350;;;;
2022/03/11 20:21:27;;;;;;;28.6;45;;;;;;;-4.9;52.9;100360;;;;
2022/03/11 20:32:27;;;;;;;22.4;36.8;;;;;;;-5;52.8;100350;;;;
2022/03/11 20:42:28;;;;;;;22.4;36.8;;;;;;;-5.1;53.1;100360;;;;
2022/03/11 20:53:27;;;;;;;22.4;36.8;;;;;;;-4.9;53.4;100350;;;;
2022/03/11 21:04:27;;;;;;;23;35.1;;;;;;;-4.9;53.6;100350;;;;
2022/03/11 21:14:27;;;;;;;23;35.1;;;;;;;-4.9;53.5;100340;;;;
2022/03/11 21:25:27;;;;;;;23;35.1;;;;;;;-4.9;53.8;100330;;;;
2022/03/11 21:35:28;;;;;;;27.3;44.9;;;;;;;-5;53.7;100330;;;;
2022/03/11 21:45:28;;;;;;;27.3;44.9;;;;;;;-5.1;54.3;100320;;;;
2022/03/11 21:56:28;;;;;;;27.3;44.9;;;;;;;-5.1;54.6;100320;;;;
2022/03/11 22:07:27;;;;;;;22.1;36.7;;;;;;;-5.1;54.6;100310;;;;
2022/03/11 22:18:28;;;;;;;22.1;36.7;;;;;;;-5;54.5;100320;;;;
2022/03/11 22:29:29;;;;;;;19.4;28.2;;;;;;;-5;54;100320;;;;
2022/03/11 22:40:28;;;;;;;19.4;28.2;;;;;;;-5.3;54.3;100320;;;;
2022/03/11 22:51:27;;;;;;;19.4;28.2;;;;;;;-5.5;54.7;100320;;;;
2022/03/11 23:02:59;;;;;;;18.7;30.5;;;;;;;-5.6;55.5;100310;;;;
2022/03/11 23:12:27;;;;;;;18.7;30.5;;;;;;;-5.7;56.8;100320;;;;
2022/03/11 23:23:28;;;;;;;18.7;30.5;;;;;;;-5.8;57;100310;;;;
2022/03/11 23:34:27;;;;;;;22.2;38.9;;;;;;;-5.9;57.7;100320;;;;
2022/03/11 23:44:28;;;;;;;22.2;38.9;;;;;;;-6;58.9;100330;;;;
2022/03/11 23:55:28;;;;;;;22.2;38.9;;;;;;;-6.2;58.9;100320;;;;
